Time;durP1;ratioP1;P1;durP2;ratioP2;P2;SDS_P1;SDS_P2;PMS_P1;PMS_P2;Temp;Humidity;BMP_temperature;BMP_pressure;BME280_temperature;BME280_humidity;BME280_pressure;Samples;Min_cycle;Max_cycle;Signal;HPM_P1;HPM_P2
2021/07/18 00:00:18;;;;;;;22.38;15.05;;;;;;;22.65;65.07;97785.77;128678;1096;116619;-79
2021/07/18 00:02:44;;;;;;;24.55;15.73;;;;;;;22.66;64.97;97779.86;128673;1096;115885;-79
2021/07/18 00:05:11;;;;;;;24.53;16.00;;;;;;;22.70;64.87;97779.84;128653;1097;116181;-79
2021/07/18 00:07:37;;;;;;;23.48;15.73;;;;;;;22.71;64.39;97781.39;129500;1097;22531;-79
2021/07/18 00:10:05;;;;;;;24.15;15.38;;;;;;;22.72;64.81;97771.99;128678;1096;115688;-79
2021/07/18 00:12:31;;;;;;;26.68;15.73;;;;;;;22.74;64.58;97775.88;128640;1097;116093;-79
2021/07/18 00:14:57;;;;;;;27.33;16.45;;;;;;;22.75;64.58;97776.66;128696;1096;116554;-79
2021/07/18 00:17:23;;;;;;;24.73;16.83;;;;;;;22.73;64.83;97774.32;128653;1096;116244;-79
2021/07/18 00:19:49;;;;;;;30.53;17.73;;;;;;;22.73;64.65;97771.58;129507;1097;22588;-79
2021/07/18 00:22:15;;;;;;;26.58;15.05;;;;;;;22.74;64.70;97772.35;128693;1096;116128;-79
2021/07/18 00:24:41;;;;;;;24.80;13.88;;;;;;;22.77;64.91;97777.81;128663;1095;117162;-79
2021/07/18 00:27:08;;;;;;;21.63;13.18;;;;;;;22.82;64.97;97773.08;128695;1096;116686;-79
2021/07/18 00:29:34;;;;;;;27.03;16.25;;;;;;;22.88;65.33;97774.21;128722;1096;116332;-80
2021/07/18 00:32:00;;;;;;;28.90;16.73;;;;;;;22.91;65.08;97774.21;128640;1095;116103;-81
2021/07/18 00:34:26;;;;;;;23.45;15.10;;;;;;;22.94;64.68;97778.87;129558;1096;22526;-79
2021/07/18 00:36:52;;;;;;;27.25;16.30;;;;;;;22.97;64.72;97769.83;128672;1096;115876;-79
2021/07/18 00:39:17;;;;;;;27.23;16.28;;;;;;;22.98;64.61;97770.60;128663;1096;117263;-79
2021/07/18 00:41:44;;;;;;;26.03;16.88;;;;;;;22.98;64.70;97768.63;128661;1095;116544;-79
2021/07/18 00:44:11;;;;;;;26.55;16.68;;;;;;;22.99;64.60;97763.92;128703;1096;116464;-80
2021/07/18 00:46:37;;;;;;;28.08;16.10;;;;;;;22.97;64.42;97769.05;129541;1096;22498;-80
2021/07/18 00:49:04;;;;;;;27.80;17.23;;;;;;;22.97;64.35;97763.56;128660;1096;115574;-80
2021/07/18 00:51:30;;;;;;;27.70;16.90;;;;;;;22.94;64.28;97773.38;128684;1096;115596;-80
2021/07/18 00:53:59;;;;;;;26.43;15.13;;;;;;;22.96;64.42;97768.27;128695;1096;116704;-80
2021/07/18 00:56:26;;;;;;;23.25;13.45;;;;;;;22.98;64.61;97765.89;128662;1096;116496;-80
2021/07/18 00:58:54;;;;;;;22.73;13.60;;;;;;;23.01;64.81;97756.07;129511;1096;23004;-80
2021/07/18 01:01:28;;;;;;;23.60;15.10;;;;;;;23.05;64.73;97761.53;129502;1096;22493;-80
2021/07/18 01:03:55;;;;;;;26.13;15.50;;;;;;;23.05;64.69;97762.30;128778;1095;116376;-80
2021/07/18 01:06:21;;;;;;;23.83;15.50;;;;;;;23.08;64.51;97761.50;128677;1097;116710;-80
2021/07/18 01:08:48;;;;;;;27.45;16.00;;;;;;;23.09;64.20;97768.54;128669;1096;115958;-80
2021/07/18 01:11:14;;;;;;;26.33;15.78;;;;;;;23.11;64.14;97765.38;128682;1096;116448;-80
2021/07/18 01:13:40;;;;;;;24.20;15.60;;;;;;;23.10;64.05;97763.82;129599;1096;22520;-80
2021/07/18 01:16:06;;;;;;;26.83;15.93;;;;;;;23.09;63.98;97762.27;128806;1096;116205;-80
2021/07/18 01:18:32;;;;;;;26.20;16.48;;;;;;;23.09;64.12;97768.54;128741;1096;117473;-80
2021/07/18 01:21:00;;;;;;;27.75;15.98;;;;;;;23.08;63.95;97766.21;128649;1096;116163;-80
2021/07/18 01:23:32;;;;;;;23.88;15.45;;;;;;;23.06;64.24;97763.86;128684;1097;116678;-81
2021/07/18 01:25:59;;;;;;;27.08;14.78;;;;;;;23.04;64.28;97752.52;128722;1096;116890;-80
2021/07/18 01:28:26;;;;;;;28.63;14.18;;;;;;;23.06;64.50;97755.62;129558;1096;22546;-80
2021/07/18 01:30:52;;;;;;;19.10;12.88;;;;;;;23.09;64.39;97760.30;128696;1096;116087;-80
2021/07/18 01:33:18;;;;;;;24.00;15.15;;;;;;;23.11;64.64;97746.95;128725;1096;116115;-81
2021/07/18 01:35:48;;;;;;;24.88;16.20;;;;;;;23.13;64.37;97761.05;128660;1096;116003;-81
2021/07/18 01:38:18;;;;;;;26.20;16.90;;;;;;;23.15;64.34;97761.43;128692;1096;117321;-80
2021/07/18 01:40:44;;;;;;;31.30;17.53;;;;;;;23.17;64.20;97759.04;129514;1097;22526;-80
2021/07/18 01:43:10;;;;;;;26.70;16.98;;;;;;;23.18;64.00;97763.34;128687;1096;116399;-80
2021/07/18 01:45:36;;;;;;;26.78;16.95;;;;;;;23.17;64.08;97761.78;128694;1096;116093;-80
2021/07/18 01:48:03;;;;;;;27.23;17.68;;;;;;;23.18;64.21;97779.05;128673;1097;116094;-80
2021/07/18 01:50:29;;;;;;;28.28;16.88;;;;;;;23.17;64.27;97778.27;128662;1095;116378;-80
2021/07/18 01:52:55;;;;;;;32.70;17.13;;;;;;;23.15;64.14;97785.38;129394;1096;115888;-80
2021/07/18 01:55:22;;;;;;;27.90;16.98;;;;;;;23.13;64.21;97782.23;129091;1096;120338;-81
2021/07/18 01:57:48;;;;;;;27.85;15.93;;;;;;;23.11;64.54;97782.66;128655;1095;116313;-81
2021/07/18 02:00:15;;;;;;;23.90;14.30;;;;;;;23.11;64.74;97788.15;128774;1096;116199;-81
2021/07/18 02:02:45;;;;;;;27.23;14.45;;;;;;;23.12;65.22;97794.42;128690;1096;116294;-81
2021/07/18 02:05:11;;;;;;;;;;;;;;;23.11;65.08;97798.33;128706;1096;115939;-81
2021/07/18 02:07:37;;;;;;;29.33;16.80;;;;;;;23.05;65.24;97806.23;129535;1096;22508;-81
2021/07/18 02:10:06;;;;;;;28.88;16.60;;;;;;;22.94;65.31;97800.83;128709;1096;116746;-81
2021/07/18 02:12:35;;;;;;;23.38;13.43;;;;;;;22.84;66.00;97795.42;128693;1096;116901;-81
2021/07/18 02:15:04;;;;;;;28.58;16.13;;;;;;;22.74;65.85;97791.56;128655;1095;116482;-80
2021/07/18 02:17:29;;;;;;;32.13;17.83;;;;;;;22.67;65.52;97802.59;128693;1096;116535;-80
2021/07/18 02:19:55;;;;;;;34.60;16.85;;;;;;;22.54;66.29;97797.59;129004;1096;115980;-80
2021/07/18 02:22:29;;;;;;;26.10;14.65;;;;;;;22.48;66.28;97799.21;129485;1096;22523;-80
2021/07/18 02:24:55;;;;;;;26.00;13.58;;;;;;;22.47;66.87;97805.86;128679;1097;115829;-80
2021/07/18 02:27:21;;;;;;;24.70;15.50;;;;;;;22.47;66.75;97792.14;128646;1096;115997;-80
2021/07/18 02:29:48;;;;;;;30.13;17.33;;;;;;;22.45;66.88;97808.24;128799;1096;115823;-79
2021/07/18 02:32:14;;;;;;;29.85;16.95;;;;;;;22.35;67.12;97797.33;128673;1096;116516;-80
2021/07/18 02:34:40;;;;;;;31.68;18.45;;;;;;;22.26;67.29;97795.81;129491;1097;22522;-80
2021/07/18 02:37:06;;;;;;;31.63;18.63;;;;;;;22.23;67.49;97790.34;128748;1095;115694;-79
2021/07/18 02:39:32;;;;;;;30.30;17.85;;;;;;;22.19;67.56;97789.59;128671;1095;116342;-79
2021/07/18 02:41:58;;;;;;;27.18;15.60;;;;;;;22.17;67.82;97781.77;128706;1096;116766;-79
2021/07/18 02:44:24;;;;;;;26.15;14.55;;;;;;;22.12;68.12;97804.08;128661;1097;116010;-79
2021/07/18 02:46:53;;;;;;;27.85;17.43;;;;;;;22.01;68.09;97792.41;129508;1096;22695;-79
2021/07/18 02:49:19;;;;;;;32.85;17.98;;;;;;;21.93;68.42;97791.66;128720;1096;115766;-80
2021/07/18 02:51:45;;;;;;;30.33;17.40;;;;;;;21.89;68.57;97792.83;128680;1096;115569;-80
2021/07/18 02:54:12;;;;;;;29.45;17.48;;;;;;;21.86;68.58;97775.24;128685;1097;116688;-80
2021/07/18 02:56:38;;;;;;;34.75;18.03;;;;;;;21.84;68.65;97785.81;128702;1096;116310;-80
2021/07/18 02:59:03;;;;;;;27.30;15.90;;;;;;;21.82;68.64;97790.92;128689;1096;116548;-80
2021/07/18 03:01:29;;;;;;;24.95;15.13;;;;;;;21.76;68.80;97787.02;129593;1096;22531;-80
2021/07/18 03:03:56;;;;;;;30.33;15.70;;;;;;;21.74;69.18;97787.43;128738;1096;116891;-80
2021/07/18 03:06:22;;;;;;;30.33;17.10;;;;;;;21.74;69.03;97789.39;128764;1096;115722;-80
2021/07/18 03:08:48;;;;;;;31.40;17.35;;;;;;;21.73;69.14;97796.84;128678;1096;115814;-80
2021/07/18 03:11:14;;;;;;;33.58;18.00;;;;;;;21.73;69.18;97806.98;128710;1095;116927;-80
2021/07/18 03:13:40;;;;;;;29.58;17.80;;;;;;;21.68;69.57;97801.93;129601;1096;23276;-80
2021/07/18 03:16:06;;;;;;;31.05;18.18;;;;;;;21.60;69.38;97792.95;128784;1096;116119;-80
2021/07/18 03:18:32;;;;;;;29.93;17.43;;;;;;;21.57;69.49;97796.47;128654;1096;116242;-80
2021/07/18 03:20:58;;;;;;;34.40;17.83;;;;;;;21.54;69.50;97795.33;128742;1096;116595;-80
2021/07/18 03:23:24;;;;;;;27.85;15.53;;;;;;;21.54;69.58;97789.85;128654;1097;115955;-80
2021/07/18 03:25:50;;;;;;;26.03;14.73;;;;;;;21.53;69.78;97791.00;129561;1096;22534;-80
2021/07/18 03:28:16;;;;;;;31.20;17.13;;;;;;;21.55;69.87;97809.80;128682;1096;115795;-80
2021/07/18 03:30:42;;;;;;;30.15;17.48;;;;;;;21.51;69.99;97809.81;128636;1096;116652;-79
2021/07/18 03:33:08;;;;;;;28.93;16.95;;;;;;;21.50;69.94;97805.52;128685;1097;116746;-79
2021/07/18 03:35:34;;;;;;;36.43;18.38;;;;;;;21.50;69.84;97811.00;128705;1096;115841;-79
2021/07/18 03:38:00;;;;;;;30.33;17.48;;;;;;;21.51;70.01;97809.03;128659;1096;116170;-79
2021/07/18 03:40:29;;;;;;;28.23;15.80;;;;;;;21.51;70.23;97811.77;129502;1096;22533;-79
2021/07/18 03:42:56;;;;;;;26.40;14.73;;;;;;;21.52;70.32;97814.11;128684;1096;116561;-80
2021/07/18 03:45:22;;;;;;;29.13;14.30;;;;;;;21.55;70.46;97820.77;128687;1096;115693;-80
2021/07/18 03:47:48;;;;;;;28.73;17.58;;;;;;;21.57;70.35;97832.09;128734;1097;116887;-80
2021/07/18 03:50:14;;;;;;;32.37;17.47;;;;;;;21.58;70.47;97827.42;128681;1096;116326;-80
2021/07/18 03:52:40;;;;;;;32.85;17.90;;;;;;;21.58;70.29;97825.45;129555;1096;23364;-80
2021/07/18 03:55:07;;;;;;;31.35;17.98;;;;;;;21.63;70.18;97829.74;128666;1095;116048;-80
2021/07/18 03:57:33;;;;;;;32.10;18.33;;;;;;;21.65;70.45;97841.07;128685;1097;116390;-81
2021/07/18 03:59:59;;;;;;;33.80;18.20;;;;;;;21.67;70.42;97834.03;128744;1096;116087;-80
2021/07/18 04:02:26;;;;;;;30.50;16.43;;;;;;;21.71;70.50;97834.02;128707;1096;116919;-80
2021/07/18 04:04:52;;;;;;;27.68;15.00;;;;;;;21.77;70.41;97833.23;129551;1096;22507;-80
2021/07/18 04:07:18;;;;;;;26.10;15.00;;;;;;;21.85;70.36;97844.14;128796;1096;116320;-80
2021/07/18 04:09:47;;;;;;;37.68;18.25;;;;;;;21.91;70.53;97839.83;128697;1096;116382;-80
2021/07/18 04:12:13;;;;;;;32.20;17.95;;;;;;;21.97;70.43;97840.99;128674;1096;116021;-80
2021/07/18 04:14:39;;;;;;;32.30;18.03;;;;;;;22.00;70.41;97846.43;128678;1095;115998;-80
2021/07/18 04:17:05;;;;;;;31.83;17.93;;;;;;;22.03;70.41;97842.91;128725;1096;118508;-79
2021/07/18 04:19:31;;;;;;;29.20;18.23;;;;;;;22.09;70.30;97842.51;129615;1096;22564;-79
2021/07/18 04:21:57;;;;;;;32.03;18.57;;;;;;;22.12;70.29;97849.91;128702;1096;115996;-79
2021/07/18 04:24:23;;;;;;;29.33;15.45;;;;;;;22.17;70.04;97852.30;128683;1096;116675;-80
2021/07/18 04:26:49;;;;;;;27.28;14.63;;;;;;;22.22;70.39;97860.88;128691;1096;116629;-80
2021/07/18 04:29:15;;;;;;;25.93;15.15;;;;;;;22.30;70.04;97862.39;128675;1096;116287;-80
2021/07/18 04:31:41;;;;;;;31.58;17.83;;;;;;;22.35;70.12;97863.16;129603;1095;22507;-80
2021/07/18 04:34:07;;;;;;;31.75;17.75;;;;;;;22.39;69.65;97866.66;128731;1096;115943;-80
2021/07/18 04:36:33;;;;;;;28.78;17.45;;;;;;;22.43;69.92;97851.73;128684;1097;115900;-80
2021/07/18 04:38:59;;;;;;;30.45;17.43;;;;;;;22.51;69.66;97852.48;128723;1096;116370;-80
2021/07/18 04:41:25;;;;;;;28.03;17.53;;;;;;;22.56;69.71;97852.08;128780;1096;116377;-80
2021/07/18 04:43:51;;;;;;;30.55;17.23;;;;;;;22.63;69.61;97854.75;129566;1096;23287;-80
2021/07/18 04:46:17;;;;;;;29.58;16.35;;;;;;;22.69;69.67;97857.88;128690;1096;116076;-80
2021/07/18 04:48:43;;;;;;;26.15;15.38;;;;;;;22.77;69.56;97854.67;128715;1096;115757;-80
2021/07/18 04:51:09;;;;;;;25.18;14.23;;;;;;;22.87;69.80;97860.48;128688;1096;116161;-80
2021/07/18 04:53:35;;;;;;;31.70;17.78;;;;;;;22.98;69.44;97864.73;128693;1096;116646;-80
2021/07/18 04:56:01;;;;;;;32.70;18.55;;;;;;;23.07;69.00;97863.48;128716;1096;116303;-80
2021/07/18 04:58:27;;;;;;;32.45;18.63;;;;;;;23.14;68.96;97869.70;129519;1096;22628;-80
2021/07/18 05:00:53;;;;;;;31.20;17.38;;;;;;;23.23;68.66;97872.79;128695;1096;115704;-80
2021/07/18 05:03:19;;;;;;;33.03;19.30;;;;;;;23.29;68.25;97875.86;128684;1096;116275;-80
2021/07/18 05:05:45;;;;;;;34.00;18.33;;;;;;;23.36;68.09;97872.28;128715;1096;116515;-80
2021/07/18 05:08:11;;;;;;;31.08;19.40;;;;;;;23.41;67.61;97871.83;128681;1096;116450;-80
2021/07/18 05:10:37;;;;;;;32.53;17.93;;;;;;;23.46;67.14;97882.38;129591;1096;22514;-80
2021/07/18 05:13:03;;;;;;;28.68;16.98;;;;;;;23.44;67.26;97882.02;128831;1096;116055;-80
2021/07/18 05:15:29;;;;;;;26.70;17.00;;;;;;;23.44;67.44;97888.29;128766;1095;116330;-80
2021/07/18 05:17:56;;;;;;;29.03;15.90;;;;;;;23.48;67.51;97889.03;128685;1096;115967;-80
2021/07/18 05:20:22;;;;;;;30.63;17.60;;;;;;;23.51;67.48;97890.20;128708;1096;116288;-80
2021/07/18 05:22:50;;;;;;;30.15;17.98;;;;;;;23.59;67.45;97890.91;129537;1096;22579;-80
2021/07/18 05:25:17;;;;;;;30.03;17.68;;;;;;;23.64;67.32;97882.99;128735;1096;116035;-80
2021/07/18 05:27:43;;;;;;;30.90;18.95;;;;;;;23.73;67.15;97891.56;128666;1096;115933;-80
2021/07/18 05:30:11;;;;;;;26.40;17.95;;;;;;;23.83;67.12;97886.38;128690;1096;116827;-80
2021/07/18 05:32:38;;;;;;;30.13;18.45;;;;;;;23.93;66.94;97889.02;128718;1096;116353;-80
2021/07/18 05:35:05;;;;;;;30.55;17.50;;;;;;;24.01;66.83;97889.69;128709;1095;115661;-80
2021/07/18 05:37:31;;;;;;;30.88;17.73;;;;;;;24.09;66.47;97885.69;129471;1096;22521;-81
2021/07/18 05:39:57;;;;;;;29.83;16.80;;;;;;;24.19;66.28;97881.23;128701;1096;116136;-80
2021/07/18 05:42:23;;;;;;;26.48;15.78;;;;;;;24.28;66.15;97876.00;128716;1096;117073;-80
2021/07/18 05:44:50;;;;;;;31.83;17.28;;;;;;;24.38;66.26;97872.38;128811;1096;115879;-80
2021/07/18 05:47:16;;;;;;;28.60;17.53;;;;;;;24.47;65.59;97883.64;128696;1096;116268;-80
2021/07/18 05:49:42;;;;;;;28.43;18.38;;;;;;;24.52;65.10;97874.14;129516;1097;22615;-80
2021/07/18 05:52:08;;;;;;;27.55;18.23;;;;;;;24.57;64.83;97870.94;128713;1096;116773;-80
2021/07/18 05:54:38;;;;;;;31.03;18.55;;;;;;;24.62;64.72;97878.73;128698;1096;116287;-80
2021/07/18 05:57:05;;;;;;;30.33;17.73;;;;;;;24.67;64.65;97874.72;128665;1096;115810;-81
2021/07/18 05:59:31;;;;;;;31.28;19.33;;;;;;;24.73;64.22;97886.84;128681;1097;116826;-80
2021/07/18 06:01:57;;;;;;;35.57;19.37;;;;;;;24.76;63.81;97882.45;128655;1097;116052;-80
2021/07/18 06:04:24;;;;;;;31.35;18.75;;;;;;;24.79;63.60;97878.88;129451;1096;22621;-80
2021/07/18 06:06:50;;;;;;;30.33;17.63;;;;;;;24.84;63.57;97876.45;128733;1096;116456;-80
2021/07/18 06:09:17;;;;;;;27.65;18.50;;;;;;;24.84;63.82;97884.72;128678;1096;116631;-79
2021/07/18 06:11:43;;;;;;;27.53;17.58;;;;;;;24.94;63.92;97878.25;128673;1095;116119;-80
2021/07/18 06:14:09;;;;;;;27.03;16.65;;;;;;;25.00;64.04;97884.08;128671;1096;116166;-80
2021/07/18 06:16:35;;;;;;;30.78;18.38;;;;;;;25.08;63.91;97876.48;129511;1096;22614;-79
2021/07/18 06:19:02;;;;;;;26.53;16.95;;;;;;;25.15;63.77;97879.94;128739;1096;116079;-81
2021/07/18 06:21:28;;;;;;;33.05;18.08;;;;;;;25.26;63.59;97884.47;128761;1096;115926;-82
2021/07/18 06:23:54;;;;;;;29.90;17.98;;;;;;;25.37;63.58;97893.34;128715;1096;116164;-82
2021/07/18 06:26:20;;;;;;;30.68;19.23;;;;;;;25.44;63.20;97894.00;128716;1096;116280;-84
2021/07/18 06:28:46;;;;;;;27.15;19.35;;;;;;;25.46;62.80;97894.34;129541;1096;22612;-84
2021/07/18 06:31:13;;;;;;;30.35;19.23;;;;;;;25.48;62.73;97902.21;128730;1096;115901;-84
2021/07/18 06:33:39;;;;;;;30.85;18.85;;;;;;;25.58;62.55;97894.94;128680;1096;116859;-84
2021/07/18 06:36:05;;;;;;;30.95;19.43;;;;;;;25.67;62.77;97890.45;128693;1097;115973;-85
2021/07/18 06:38:34;;;;;;;28.48;18.85;;;;;;;25.73;62.53;97899.00;128793;1095;116032;-84
2021/07/18 06:41:00;;;;;;;32.20;19.65;;;;;;;25.75;62.51;97891.09;128710;1096;116169;-84
2021/07/18 06:43:26;;;;;;;30.55;18.73;;;;;;;25.79;62.51;97902.09;129618;1095;22596;-84
2021/07/18 06:45:52;;;;;;;26.18;16.95;;;;;;;25.85;62.43;97900.39;128697;1097;115916;-84
2021/07/18 06:48:18;;;;;;;34.33;19.30;;;;;;;25.88;62.51;97902.31;128787;1096;116237;-84
2021/07/18 06:50:44;;;;;;;28.30;19.15;;;;;;;25.93;62.10;97894.30;128646;1096;116710;-85
2021/07/18 06:53:10;;;;;;;30.73;19.90;;;;;;;26.00;62.01;97906.42;128669;1096;116032;-85
2021/07/18 06:55:36;;;;;;;31.60;20.33;;;;;;;26.03;62.10;97909.11;129528;1096;22664;-85
2021/07/18 06:58:02;;;;;;;30.68;20.50;;;;;;;26.06;62.15;97913.79;128710;1096;116048;-84
2021/07/18 07:00:28;;;;;;;31.00;19.65;;;;;;;26.00;62.64;97923.75;128653;1097;116266;-85
2021/07/18 07:02:54;;;;;;;37.28;20.93;;;;;;;25.91;62.44;97929.83;128705;1097;115960;-85
2021/07/18 07:05:20;;;;;;;35.58;21.45;;;;;;;25.89;62.94;97920.41;128690;1096;116907;-86
2021/07/18 07:07:46;;;;;;;34.55;20.60;;;;;;;25.89;62.67;97923.16;129574;1097;22613;-85
2021/07/18 07:10:14;;;;;;;31.65;19.18;;;;;;;25.93;63.00;97919.13;128684;1096;115817;-85
2021/07/18 07:12:41;;;;;;;36.33;21.35;;;;;;;26.02;62.52;97920.58;128733;1097;115589;-84
2021/07/18 07:15:10;;;;;;;33.63;19.83;;;;;;;26.08;62.45;97918.88;128687;1097;116040;-84
2021/07/18 07:17:36;;;;;;;35.03;22.40;;;;;;;26.13;62.15;97924.69;128701;1096;116131;-85
2021/07/18 07:20:07;;;;;;;38.28;22.98;;;;;;;26.23;61.85;97930.42;128685;1095;115928;-86
2021/07/18 07:22:36;;;;;;;;;;;;;;;26.29;61.23;97937.78;129545;1096;23311;-85
2021/07/18 07:25:10;;;;;;;35.80;23.58;;;;;;;26.38;61.36;97940.75;128803;1096;101762;-85
2021/07/18 07:27:36;;;;;;;34.48;21.55;;;;;;;26.44;60.95;97943.77;128701;1097;116435;-85
2021/07/18 07:30:06;;;;;;;33.40;21.13;;;;;;;26.50;60.79;97944.88;128688;1097;115893;-85
2021/07/18 07:32:32;;;;;;;33.08;21.70;;;;;;;26.52;60.17;97947.20;128678;1096;116509;-85
2021/07/18 07:34:58;;;;;;;34.05;21.90;;;;;;;26.51;59.82;97945.64;128681;1096;116668;-85
2021/07/18 07:37:24;;;;;;;32.33;21.38;;;;;;;26.55;59.56;97944.36;129610;1096;22608;-85
2021/07/18 07:39:52;;;;;;;32.60;21.63;;;;;;;26.63;59.93;97956.81;128718;1096;115744;-85
2021/07/18 07:42:19;;;;;;;34.53;20.85;;;;;;;26.75;59.44;97957.37;128687;1097;116052;-85
2021/07/18 07:44:45;;;;;;;31.18;19.30;;;;;;;26.89;59.70;97962.59;128680;1095;116005;-85
2021/07/18 07:47:12;;;;;;;35.25;21.95;;;;;;;27.02;59.73;97971.76;128719;1096;116037;-85
2021/07/18 07:49:39;;;;;;;34.30;21.63;;;;;;;27.03;59.74;97978.83;129551;1095;22980;-85
2021/07/18 07:52:06;;;;;;;33.43;21.00;;;;;;;27.00;59.32;97970.63;128684;1097;116800;-85
2021/07/18 07:54:32;;;;;;;33.00;22.73;;;;;;;26.91;59.62;97973.98;128702;1096;115442;-85
2021/07/18 07:56:58;;;;;;;37.15;23.60;;;;;;;26.84;59.64;97987.94;128690;1096;116142;-85
2021/07/18 07:59:24;;;;;;;38.55;22.93;;;;;;;26.73;59.85;97990.95;128713;1097;116648;-85
2021/07/18 08:01:50;;;;;;;36.18;23.68;;;;;;;26.68;60.19;97995.00;129547;1096;22538;-85
2021/07/18 08:04:15;;;;;;;41.50;24.83;;;;;;;26.64;59.74;98005.31;128730;1096;116058;-85
2021/07/18 08:06:41;;;;;;;36.73;23.15;;;;;;;26.58;60.00;97995.20;128749;1095;116160;-85
2021/07/18 08:09:09;;;;;;;40.68;24.98;;;;;;;26.55;60.02;98015.38;128765;1095;116034;-85
2021/07/18 08:11:35;;;;;;;40.68;24.28;;;;;;;26.50;60.23;98015.89;128684;1097;116012;-85
2021/07/18 08:14:02;;;;;;;39.70;25.45;;;;;;;26.45;60.26;98014.41;128658;1096;118588;-85
2021/07/18 08:16:28;;;;;;;39.55;23.68;;;;;;;26.41;60.54;98021.95;129549;1096;22561;-85
2021/07/18 08:18:54;;;;;;;36.78;22.98;;;;;;;26.34;60.63;98025.61;128655;1097;116107;-85
2021/07/18 08:21:20;;;;;;;31.43;18.73;;;;;;;26.27;60.26;98011.94;128695;1096;116348;-85
2021/07/18 08:23:49;;;;;;;29.48;17.85;;;;;;;26.20;60.63;98004.56;128701;1096;115745;-85
2021/07/18 08:26:17;;;;;;;31.83;18.63;;;;;;;26.17;60.28;98002.67;128688;1096;116124;-85
2021/07/18 08:28:45;;;;;;;30.28;17.78;;;;;;;26.15;59.65;97993.25;129509;1097;22608;-85
2021/07/18 08:31:10;;;;;;;30.35;17.63;;;;;;;26.12;59.99;98008.66;128643;1097;115819;-86
2021/07/18 08:33:36;;;;;;;27.30;16.78;;;;;;;26.11;58.68;98014.61;128696;1096;116256;-85
2021/07/18 08:36:03;;;;;;;26.68;15.95;;;;;;;26.04;58.22;98009.22;128714;1096;116733;-84
2021/07/18 08:38:29;;;;;;;31.23;17.60;;;;;;;25.97;58.64;98004.59;128655;1097;117102;-84
2021/07/18 08:40:55;;;;;;;30.18;17.65;;;;;;;25.93;58.44;98006.63;129458;1097;116345;-85
2021/07/18 08:43:24;;;;;;;29.00;18.15;;;;;;;25.87;58.62;98003.59;129239;1096;120413;-85
2021/07/18 08:45:50;;;;;;;33.35;18.80;;;;;;;25.78;58.56;97994.28;128635;1096;115714;-85
2021/07/18 08:48:17;;;;;;;30.90;18.58;;;;;;;25.73;58.66;97994.75;128680;1096;115968;-85
2021/07/18 08:50:44;;;;;;;35.65;19.55;;;;;;;25.69;58.96;97992.81;128703;1096;116236;-86
2021/07/18 08:53:10;;;;;;;;;;;;;;;25.69;59.04;97997.56;128697;1096;116282;-86
2021/07/18 08:55:39;;;;;;;34.53;19.18;;;;;;;25.76;59.24;97985.64;129537;1094;22492;-86
2021/07/18 08:58:05;;;;;;;29.35;18.25;;;;;;;25.83;59.27;97993.83;128657;1096;115538;-87
2021/07/18 09:00:38;;;;;;;29.28;17.78;;;;;;;25.83;59.14;97988.31;128695;1096;116285;-91
2021/07/18 09:03:20;;;;;;;28.83;16.33;;;;;;;25.88;58.58;97990.58;128828;1096;115761;-89
2021/07/18 09:05:47;;;;;;;28.70;16.60;;;;;;;25.94;58.31;97988.91;128747;1096;116860;-85
2021/07/18 09:08:19;;;;;;;26.58;16.53;;;;;;;26.00;58.23;97980.91;128650;1096;116373;-85
2021/07/18 09:10:49;;;;;;;24.68;15.20;;;;;;;26.06;58.18;97985.53;129507;1097;23019;-86
2021/07/18 09:13:19;;;;;;;24.23;14.77;;;;;;;26.09;57.88;97992.16;128698;1096;115625;-85
2021/07/18 09:15:52;;;;;;;23.73;14.75;;;;;;;26.10;57.61;97989.00;128670;1096;116438;-86
2021/07/18 09:18:25;;;;;;;25.18;14.98;;;;;;;26.14;57.32;97983.42;128700;1097;116188;-84
2021/07/18 09:20:54;;;;;;;20.88;14.03;;;;;;;26.14;56.70;97978.67;128686;1097;116719;-84
2021/07/18 09:23:28;;;;;;;23.90;14.13;;;;;;;26.18;56.35;97987.66;128696;1096;116915;-83
2021/07/18 09:26:20;;;;;;;24.53;14.13;;;;;;;26.27;56.56;97986.33;129533;1095;22536;-84
2021/07/18 09:28:47;;;;;;;22.50;13.85;;;;;;;26.44;56.26;97993.47;129609;1096;23021;-84
2021/07/18 09:31:30;;;;;;;26.08;15.03;;;;;;;26.58;55.87;98003.49;128721;1097;115430;-81
2021/07/18 09:34:19;;;;;;;24.43;15.18;;;;;;;26.65;55.80;97990.32;128712;1096;117353;-81
2021/07/18 09:36:47;;;;;;;22.25;13.90;;;;;;;26.75;54.69;97984.98;128677;1097;116711;-82
2021/07/18 09:39:13;;;;;;;23.90;15.08;;;;;;;26.90;55.33;97989.78;128769;1095;116186;-83
2021/07/18 09:41:42;;;;;;;22.63;14.58;;;;;;;26.99;55.02;97989.19;128692;1096;116513;-83
2021/07/18 09:44:09;;;;;;;24.48;14.43;;;;;;;27.01;55.08;97984.02;128666;1097;116094;-84
2021/07/18 09:46:36;;;;;;;23.30;14.08;;;;;;;27.05;55.03;97990.25;129520;1096;23011;-83
2021/07/18 09:49:05;;;;;;;20.73;13.18;;;;;;;27.09;54.95;97990.17;128717;1096;115840;-84
2021/07/18 09:51:32;;;;;;;21.28;13.43;;;;;;;27.09;54.40;97993.72;128663;1096;116157;-84
2021/07/18 09:54:14;;;;;;;23.23;13.83;;;;;;;27.12;54.57;98001.18;128696;1096;116519;-84
2021/07/18 09:56:40;;;;;;;21.75;13.35;;;;;;;27.12;53.52;98005.94;128681;1096;116771;-84
2021/07/18 09:59:07;;;;;;;20.55;13.60;;;;;;;27.11;53.32;98010.66;128701;1096;116181;-84
2021/07/18 10:01:34;;;;;;;23.88;13.38;;;;;;;27.13;53.11;98022.08;129542;1096;22483;-86
2021/07/18 10:04:03;;;;;;;21.33;12.65;;;;;;;27.10;53.19;98024.89;128666;1096;115655;-84
2021/07/18 10:06:30;;;;;;;17.68;11.53;;;;;;;27.09;53.37;98026.10;128716;1097;116036;-83
2021/07/18 10:09:04;;;;;;;21.50;11.18;;;;;;;27.04;53.09;98019.10;128715;1096;116369;-83
2021/07/18 10:11:31;;;;;;;15.90;10.05;;;;;;;27.00;52.41;98021.16;128720;1096;115701;-83
2021/07/18 10:13:58;;;;;;;17.95;11.00;;;;;;;27.00;52.43;98015.64;128683;1096;116228;-84
2021/07/18 10:16:29;;;;;;;14.98;10.03;;;;;;;26.98;52.16;98012.51;129528;1095;22959;-83
2021/07/18 10:18:56;;;;;;;18.23;10.90;;;;;;;26.94;52.04;97998.00;128690;1096;116269;-83
2021/07/18 10:21:25;;;;;;;18.85;10.55;;;;;;;26.89;52.35;97990.22;128689;1097;116059;-83
2021/07/18 10:23:53;;;;;;;17.98;11.50;;;;;;;26.82;52.66;97988.38;128660;1096;116839;-83
2021/07/18 10:26:27;;;;;;;19.48;11.93;;;;;;;26.75;52.52;97983.00;128778;1096;117118;-84
2021/07/18 10:28:54;;;;;;;19.70;11.58;;;;;;;26.68;52.49;97981.19;129521;1096;23308;-83
2021/07/18 10:31:31;;;;;;;18.15;12.25;;;;;;;26.60;52.57;97976.98;129563;1096;22517;-83
2021/07/18 10:33:59;;;;;;;20.83;12.65;;;;;;;26.54;52.91;97978.71;128682;1096;116473;-83
2021/07/18 10:36:26;;;;;;;19.73;12.40;;;;;;;26.47;53.57;97961.51;128685;1095;116398;-83
2021/07/18 10:38:52;;;;;;;23.18;13.00;;;;;;;26.42;53.89;97963.53;128715;1096;116616;-83
2021/07/18 10:41:54;;;;;;;20.05;12.88;;;;;;;26.40;53.94;97970.67;128704;1096;115985;-84
2021/07/18 10:44:21;;;;;;;23.83;12.68;;;;;;;26.34;54.65;97953.84;127667;1100;116062;-84
2021/07/18 10:47:11;;;;;;;21.60;12.50;;;;;;;26.33;55.05;97951.48;129299;1096;22527;-86
2021/07/18 10:50:14;;;;;;;21.60;12.65;;;;;;;26.31;55.33;97951.15;129624;1096;22591;-85
2021/07/18 10:52:40;;;;;;;19.50;12.27;;;;;;;26.29;55.35;97954.34;129546;1096;22574;-85
2021/07/18 10:55:23;;;;;;;19.23;12.73;;;;;;;26.31;56.00;97938.13;128691;1096;115958;-85
2021/07/18 10:58:09;;;;;;;21.25;12.45;;;;;;;26.36;56.10;97948.66;128710;1096;115703;-85
2021/07/18 11:00:46;;;;;;;19.18;12.65;;;;;;;26.42;56.41;97935.93;128665;1096;116031;-85
2021/07/18 11:03:12;;;;;;;21.98;12.83;;;;;;;26.49;57.31;97939.76;128708;1095;115854;-85
2021/07/18 11:05:44;;;;;;;20.65;12.23;;;;;;;26.56;57.87;97937.63;128705;1096;115963;-85